Gorseinon, United Kingdom
Current Conditions -  °F | °C
As of 2:50 PM on Wednesday 22 Oct 2014 (Local Time) from EGOP Reporting Station
Broken Clouds Broken Clouds  
Wind Chill: 57°   Ceiling: 2800
Heat Index: 57°   Visibility: 6mi
Dew Point: 50°   Wind: 21mph
Humidity: 77%   Direction: 270°W
Pressure: 30.27"   Gusts: NA
Location:  51.67°N, 4.04°W
Report Text: EGOP 221350Z 27018KT 9999 FEW023 BKN028 14/10 Q1025 BLU
Loading
Personal Weather Stations






























Interactive Weather Map
Tropical Storm Tracking
New forecast layout! Learn more

10-Day Weather Forecast

Advertisements
Track Severe Weather on mobile